createdAt,value
2023-05-14T00:01:37.142Z,82.12
2023-05-14T00:04:05.796Z,83.86
2023-05-14T00:06:34.238Z,83.36
2023-05-14T00:09:02.606Z,82.98
2023-05-14T00:11:30.887Z,82.20
2023-05-14T00:13:59.193Z,81.89
2023-05-14T00:16:27.547Z,81.85
2023-05-14T00:18:55.948Z,81.79
2023-05-14T00:21:24.342Z,81.82
2023-05-14T00:23:52.656Z,83.13
2023-05-14T00:26:21.725Z,82.34
2023-05-14T00:28:50.054Z,82.00
2023-05-14T00:31:18.425Z,82.70
2023-05-14T00:33:46.859Z,82.48
2023-05-14T00:36:15.188Z,82.02
2023-05-14T00:38:43.530Z,81.51
2023-05-14T00:41:12.333Z,81.54
2023-05-14T00:43:40.736Z,81.70
2023-05-14T00:46:09.394Z,82.55
2023-05-14T00:48:37.754Z,82.52
2023-05-14T00:51:08.128Z,82.56
2023-05-14T00:53:36.998Z,83.16
2023-05-14T00:56:07.130Z,83.76
2023-05-14T00:58:35.522Z,84.73
2023-05-14T01:01:04.102Z,84.94
2023-05-14T01:03:33.657Z,84.44
2023-05-14T01:06:12.170Z,84.14
2023-05-14T01:09:09.141Z,84.25
2023-05-14T01:11:53.010Z,84.17
2023-05-14T01:14:33.157Z,85.45
2023-05-14T01:17:04.393Z,84.61
2023-05-14T01:19:42.700Z,85.00
2023-05-14T01:22:12.299Z,85.07
2023-05-14T01:24:41.156Z,85.02
2023-05-14T01:27:47.367Z,84.95
2023-05-14T01:30:29.179Z,84.61
2023-05-14T01:33:00.718Z,84.91
2023-05-14T01:35:30.674Z,84.50
2023-05-14T01:38:01.273Z,84.42
2023-05-14T01:40:31.718Z,84.05
2023-05-14T01:43:02.249Z,83.87
2023-05-14T01:45:31.465Z,83.71
2023-05-14T01:47:59.811Z,83.88
2023-05-14T01:50:28.247Z,85.52
2023-05-14T01:52:56.933Z,85.15
2023-05-14T01:55:25.857Z,84.63
2023-05-14T01:57:54.552Z,85.66
2023-05-14T02:00:26.223Z,86.11
2023-05-14T02:02:54.656Z,86.43
2023-05-14T02:05:24.911Z,86.75
2023-05-14T02:07:55.015Z,87.12
2023-05-14T02:10:23.454Z,87.33
2023-05-14T02:12:51.993Z,87.06
2023-05-14T02:15:20.411Z,87.92
2023-05-14T02:17:48.810Z,88.13
2023-05-14T02:20:17.271Z,88.24
2023-05-14T02:22:46.462Z,88.89
2023-05-14T02:25:15.170Z,88.67
2023-05-14T02:27:43.516Z,88.00
2023-05-14T02:30:12.805Z,87.59
2023-05-14T02:32:41.763Z,87.40
2023-05-14T02:35:10.346Z,87.36
2023-05-14T02:37:38.872Z,87.29
2023-05-14T02:40:07.940Z,87.32
2023-05-14T02:42:36.216Z,87.52
2023-05-14T02:45:05.019Z,87.28
2023-05-14T02:47:36.902Z,87.94
2023-05-14T02:50:07.329Z,88.25
2023-05-14T02:52:36.062Z,88.13
2023-05-14T02:55:05.089Z,88.62
2023-05-14T02:57:33.385Z,88.62
2023-05-14T03:00:01.782Z,88.03
2023-05-14T03:02:30.826Z,88.51
2023-05-14T03:04:59.790Z,88.70
2023-05-14T03:07:28.163Z,88.69
2023-05-14T03:09:56.662Z,89.07
2023-05-14T03:12:24.998Z,89.08
2023-05-14T03:14:53.357Z,89.03
2023-05-14T03:17:21.708Z,89.02
2023-05-14T03:19:50.437Z,88.94
2023-05-14T03:22:18.949Z,88.45
2023-05-14T03:24:49.309Z,87.97
2023-05-14T03:27:17.605Z,87.53
2023-05-14T03:29:45.921Z,87.18
2023-05-14T03:32:15.236Z,86.59
2023-05-14T03:34:44.997Z,85.75
2023-05-14T03:37:13.622Z,85.25
2023-05-14T03:39:42.059Z,84.60
2023-05-14T03:42:10.445Z,83.73
2023-05-14T03:44:38.784Z,83.31
2023-05-14T03:47:07.117Z,83.34
2023-05-14T03:49:35.558Z,83.09
2023-05-14T03:52:04.335Z,82.77
2023-05-14T03:54:32.754Z,82.04
2023-05-14T03:57:02.089Z,81.96
2023-05-14T03:59:30.615Z,81.82
2023-05-14T04:01:58.970Z,81.98
2023-05-14T04:04:27.458Z,82.20
2023-05-14T04:06:56.294Z,82.37
2023-05-14T04:09:24.581Z,82.63
2023-05-14T04:11:52.883Z,82.01
2023-05-14T04:14:21.492Z,81.59
2023-05-14T04:16:49.922Z,81.18
2023-05-14T04:19:18.585Z,80.69
2023-05-14T04:21:47.094Z,79.99
2023-05-14T04:24:15.355Z,78.95
2023-05-14T04:26:43.597Z,78.38
2023-05-14T04:29:11.942Z,77.01
2023-05-14T04:31:40.303Z,76.08
2023-05-14T04:34:08.818Z,74.46
2023-05-14T04:36:37.112Z,73.31
2023-05-14T04:39:06.195Z,72.56
2023-05-14T04:41:34.527Z,71.16
2023-05-14T04:44:03.599Z,70.47
2023-05-14T04:46:32.073Z,70.02
2023-05-14T04:49:00.459Z,68.05
2023-05-14T04:51:28.791Z,66.75
2023-05-14T04:53:57.106Z,66.39
2023-05-14T04:56:26.139Z,64.75
2023-05-14T04:58:54.485Z,63.88
2023-05-14T05:01:23.705Z,64.01
2023-05-14T05:03:52.847Z,62.63
2023-05-14T05:06:21.269Z,61.65
2023-05-14T05:08:49.652Z,61.32
2023-05-14T05:11:18.045Z,60.19
2023-05-14T05:13:46.342Z,60.35
2023-05-14T05:16:14.650Z,58.62
2023-05-14T05:18:44.720Z,58.71
2023-05-14T05:21:13.129Z,58.37
2023-05-14T05:23:41.439Z,57.13
2023-05-14T05:26:09.826Z,57.08
2023-05-14T05:28:38.119Z,56.45
2023-05-14T05:31:06.633Z,56.64
2023-05-14T05:33:35.958Z,56.62
2023-05-14T05:36:04.499Z,56.09
2023-05-14T05:38:32.772Z,55.62
2023-05-14T05:41:01.136Z,55.92
2023-05-14T05:43:29.525Z,55.77
2023-05-14T05:45:57.783Z,55.05
2023-05-14T05:48:26.097Z,54.74
2023-05-14T05:50:54.578Z,54.82
2023-05-14T05:53:22.878Z,54.55
2023-05-14T05:55:51.825Z,54.54
2023-05-14T05:58:20.339Z,54.30
2023-05-14T06:00:48.851Z,54.48
2023-05-14T06:03:17.216Z,54.37
2023-05-14T06:05:46.992Z,53.82
2023-05-14T06:08:16.323Z,54.14
2023-05-14T06:10:47.537Z,54.95
2023-05-14T06:13:16.156Z,53.97
2023-05-14T06:15:44.828Z,54.18
2023-05-14T06:18:13.238Z,54.25
2023-05-14T06:20:41.717Z,53.12
2023-05-14T06:23:12.463Z,51.96
2023-05-14T06:25:41.264Z,52.08
2023-05-14T06:28:09.619Z,51.81
2023-05-14T06:30:37.970Z,51.42
2023-05-14T06:33:06.316Z,50.20
2023-05-14T06:35:34.900Z,47.57
2023-05-14T06:38:03.759Z,46.70
2023-05-14T06:40:32.464Z,46.29
2023-05-14T06:43:00.805Z,46.43
2023-05-14T06:45:31.222Z,46.14
2023-05-14T06:48:01.550Z,45.97
2023-05-14T06:50:29.876Z,45.94
2023-05-14T06:52:58.218Z,45.35
2023-05-14T06:55:26.550Z,45.41
2023-05-14T06:57:54.790Z,45.19
2023-05-14T07:00:23.477Z,46.24
2023-05-14T07:02:52.105Z,45.51
2023-05-14T07:05:20.567Z,46.02
2023-05-14T07:07:48.980Z,46.13
2023-05-14T07:10:18.097Z,45.30
2023-05-14T07:12:46.413Z,45.94
2023-05-14T07:15:14.784Z,45.89
2023-05-14T07:17:43.151Z,45.42
2023-05-14T07:20:12.077Z,44.92
2023-05-14T07:22:40.437Z,44.38
2023-05-14T07:25:09.001Z,44.24
2023-05-14T07:27:37.368Z,44.40
2023-05-14T07:30:06.505Z,44.08
2023-05-14T07:32:34.916Z,44.15
2023-05-14T07:35:03.369Z,43.75
2023-05-14T07:37:31.737Z,44.39
2023-05-14T07:40:00.213Z,44.26
2023-05-14T07:42:35.785Z,43.67
2023-05-14T07:45:05.784Z,43.65
2023-05-14T07:47:34.261Z,43.24
2023-05-14T07:50:03.631Z,42.71
2023-05-14T07:52:31.986Z,42.54
2023-05-14T07:55:01.645Z,42.72
2023-05-14T07:57:30.087Z,41.89
2023-05-14T07:59:58.422Z,41.90
2023-05-14T08:02:26.945Z,41.46
2023-05-14T08:04:55.776Z,41.66
2023-05-14T08:07:24.305Z,41.77
2023-05-14T08:09:52.700Z,41.86
2023-05-14T08:12:21.018Z,41.98
2023-05-14T08:14:49.298Z,42.30
2023-05-14T08:17:18.172Z,43.17
2023-05-14T08:19:47.119Z,42.49
2023-05-14T08:22:15.678Z,41.71
2023-05-14T08:24:44.075Z,41.54
2023-05-14T08:27:12.373Z,40.84
2023-05-14T08:29:40.739Z,40.58
2023-05-14T08:32:19.765Z,40.80
2023-05-14T08:34:52.648Z,40.11
2023-05-14T08:37:21.170Z,40.76
2023-05-14T08:39:49.479Z,40.69
2023-05-14T08:42:22.023Z,40.50
2023-05-14T08:45:02.583Z,40.31
2023-05-14T08:47:31.609Z,39.65
2023-05-14T08:50:12.381Z,40.14
2023-05-14T08:52:41.084Z,40.08
2023-05-14T08:55:12.023Z,39.73
2023-05-14T08:57:40.611Z,38.63
2023-05-14T09:00:12.138Z,39.29
2023-05-14T09:02:41.893Z,39.06
2023-05-14T09:05:10.703Z,39.62
2023-05-14T09:07:39.250Z,38.98
2023-05-14T09:10:09.368Z,39.68
2023-05-14T09:12:37.739Z,39.36
2023-05-14T09:15:06.933Z,38.54
2023-05-14T09:17:35.840Z,38.04
2023-05-14T09:20:04.663Z,38.43
2023-05-14T09:22:34.594Z,39.08
2023-05-14T09:25:09.658Z,38.86
2023-05-14T09:27:38.958Z,38.45
2023-05-14T09:30:12.304Z,39.10
2023-05-14T09:32:50.630Z,38.51
2023-05-14T09:35:23.688Z,38.48
2023-05-14T09:37:55.637Z,38.91
2023-05-14T09:40:25.161Z,38.38
2023-05-14T09:42:53.798Z,37.97
2023-05-14T09:45:22.273Z,37.70
2023-05-14T09:47:50.731Z,37.47
2023-05-14T09:50:19.111Z,37.95
2023-05-14T09:52:48.095Z,38.85
2023-05-14T09:55:16.510Z,38.64
2023-05-14T09:57:45.322Z,39.20
2023-05-14T10:00:14.281Z,38.59
2023-05-14T10:02:45.069Z,38.68
2023-05-14T10:05:14.089Z,39.20
2023-05-14T10:07:49.755Z,39.32
2023-05-14T10:10:24.742Z,38.84
2023-05-14T10:13:04.840Z,37.97
2023-05-14T10:15:49.516Z,39.03
2023-05-14T10:18:23.303Z,38.10
2023-05-14T10:21:06.470Z,37.83
2023-05-14T10:23:40.697Z,38.26
2023-05-14T10:26:10.837Z,38.07
2023-05-14T10:28:39.701Z,38.35
2023-05-14T10:31:10.345Z,38.97
2023-05-14T10:33:50.635Z,39.39
2023-05-14T10:36:22.476Z,39.64
2023-05-14T10:38:57.405Z,40.15
2023-05-14T10:41:25.862Z,39.48
2023-05-14T10:43:56.665Z,39.38
2023-05-14T10:46:25.110Z,39.79
2023-05-14T10:48:53.469Z,39.44
2023-05-14T10:51:23.268Z,39.53
2023-05-14T10:53:52.689Z,39.33
2023-05-14T10:56:21.677Z,39.96
2023-05-14T10:58:50.268Z,40.36
2023-05-14T11:01:18.578Z,39.05
2023-05-14T11:03:47.350Z,39.35
2023-05-14T11:06:16.471Z,38.85
2023-05-14T11:08:46.756Z,39.91
2023-05-14T11:11:15.432Z,39.74
2023-05-14T11:13:44.977Z,39.06
2023-05-14T11:16:22.530Z,38.86
2023-05-14T11:19:03.790Z,38.67
2023-05-14T11:21:35.097Z,38.54
2023-05-14T11:24:05.661Z,38.74
2023-05-14T11:26:34.564Z,38.57
2023-05-14T11:29:03.118Z,38.34
2023-05-14T11:31:31.701Z,37.97
2023-05-14T11:34:01.182Z,38.15
2023-05-14T11:36:29.480Z,38.38
2023-05-14T11:38:57.814Z,38.46
2023-05-14T11:41:28.292Z,38.28
2023-05-14T11:43:58.271Z,38.37
2023-05-14T11:46:26.681Z,38.50
2023-05-14T11:48:55.225Z,38.85
2023-05-14T11:51:24.053Z,38.83
2023-05-14T11:53:52.379Z,38.87
2023-05-14T11:56:22.832Z,38.87
2023-05-14T11:58:57.723Z,39.10
2023-05-14T12:01:26.131Z,38.74
2023-05-14T12:03:54.681Z,38.55
2023-05-14T12:06:31.404Z,38.27
2023-05-14T12:09:01.592Z,38.15
2023-05-14T12:11:33.554Z,38.03
2023-05-14T12:14:01.960Z,37.82
2023-05-14T12:16:33.435Z,38.03
2023-05-14T12:19:03.023Z,38.54
2023-05-14T12:21:32.215Z,38.76
2023-05-14T12:24:01.056Z,38.99
2023-05-14T12:26:33.422Z,39.47
2023-05-14T12:29:03.718Z,39.80
2023-05-14T12:31:36.722Z,39.92
2023-05-14T12:34:05.290Z,40.18
2023-05-14T12:36:33.753Z,40.44
2023-05-14T12:39:03.951Z,40.52
2023-05-14T12:41:33.532Z,40.47
2023-05-14T12:44:03.916Z,40.22
2023-05-14T12:46:34.402Z,40.79
2023-05-14T12:49:02.923Z,40.84
2023-05-14T12:51:31.233Z,40.76
2023-05-14T12:53:59.629Z,40.88
2023-05-14T12:56:28.698Z,40.97
2023-05-14T12:58:57.236Z,41.02
2023-05-14T13:01:26.304Z,41.23
2023-05-14T13:03:55.737Z,42.00
2023-05-14T13:06:24.270Z,42.87
2023-05-14T13:08:52.626Z,43.43
2023-05-14T13:11:22.020Z,44.58
2023-05-14T13:13:50.925Z,45.25
2023-05-14T13:16:19.288Z,45.78
2023-05-14T13:18:47.808Z,47.00
2023-05-14T13:21:16.182Z,47.93
2023-05-14T13:23:44.522Z,48.95
2023-05-14T13:26:12.860Z,50.39
2023-05-14T13:28:41.402Z,52.18
2023-05-14T13:31:12.415Z,52.07
2023-05-14T13:33:43.042Z,52.90
2023-05-14T13:36:13.920Z,53.92
2023-05-14T13:38:42.497Z,54.14
2023-05-14T13:41:10.931Z,54.36
2023-05-14T13:43:39.309Z,54.33
2023-05-14T13:46:07.754Z,55.05
2023-05-14T13:48:37.403Z,55.36
2023-05-14T13:51:05.801Z,54.18
2023-05-14T13:53:34.229Z,54.33
2023-05-14T13:56:02.657Z,54.30
2023-05-14T13:58:30.991Z,54.03
2023-05-14T14:00:59.431Z,53.95
2023-05-14T14:03:27.789Z,53.49
2023-05-14T14:05:56.200Z,52.33
2023-05-14T14:08:24.746Z,52.38
2023-05-14T14:10:55.497Z,51.75
2023-05-14T14:13:24.617Z,51.37
2023-05-14T14:15:53.123Z,51.13
2023-05-14T14:18:21.635Z,50.50
2023-05-14T14:20:49.965Z,50.94
2023-05-14T14:23:18.329Z,49.37
2023-05-14T14:25:46.666Z,48.39
2023-05-14T14:28:15.139Z,48.19
2023-05-14T14:30:44.081Z,48.24
2023-05-14T14:33:12.588Z,47.09
2023-05-14T14:35:41.024Z,46.65
2023-05-14T14:38:09.617Z,46.91
2023-05-14T14:40:38.105Z,46.67
2023-05-14T14:43:06.682Z,46.75
2023-05-14T14:45:35.073Z,46.78
2023-05-14T14:48:22.358Z,47.10
2023-05-14T14:50:54.937Z,48.08
2023-05-14T14:53:24.755Z,48.56
2023-05-14T14:55:53.708Z,48.84
2023-05-14T14:58:22.486Z,48.40
2023-05-14T15:00:53.394Z,48.93
2023-05-14T15:03:22.650Z,48.79
2023-05-14T15:05:52.326Z,48.81
2023-05-14T15:08:29.437Z,49.04
2023-05-14T15:10:57.989Z,49.35
2023-05-14T15:13:27.314Z,49.47
2023-05-14T15:15:55.700Z,49.38
2023-05-14T15:18:24.043Z,48.84
2023-05-14T15:20:53.152Z,48.18
2023-05-14T15:23:21.470Z,49.02
2023-05-14T15:25:50.218Z,49.00
2023-05-14T15:28:18.552Z,49.07
2023-05-14T15:30:48.576Z,48.69
2023-05-14T15:33:19.575Z,48.42
2023-05-14T15:35:48.089Z,47.90
2023-05-14T15:38:16.528Z,47.47
2023-05-14T15:40:44.883Z,47.32
2023-05-14T15:43:13.201Z,46.55
2023-05-14T15:45:41.506Z,46.48
2023-05-14T15:48:09.896Z,46.46
2023-05-14T15:50:38.753Z,45.66
2023-05-14T15:53:07.170Z,45.60
2023-05-14T15:55:35.791Z,45.34
2023-05-14T15:58:04.186Z,45.40
2023-05-14T16:00:32.834Z,45.58
2023-05-14T16:03:01.286Z,45.22
2023-05-14T16:05:29.704Z,45.39
2023-05-14T16:07:58.930Z,45.37
2023-05-14T16:10:27.374Z,45.55
2023-05-14T16:12:56.173Z,45.79
2023-05-14T16:15:24.518Z,45.74
2023-05-14T16:17:52.876Z,45.92
2023-05-14T16:20:21.381Z,45.53
2023-05-14T16:22:49.865Z,45.50
2023-05-14T16:25:18.994Z,45.71
2023-05-14T16:27:47.331Z,45.84
2023-05-14T16:30:15.766Z,45.89
2023-05-14T16:32:46.698Z,46.23
2023-05-14T16:35:16.973Z,46.18
2023-05-14T16:37:45.584Z,46.02
2023-05-14T16:40:16.299Z,46.39
2023-05-14T16:42:46.439Z,46.50
2023-05-14T16:45:16.283Z,46.38
2023-05-14T16:47:44.856Z,46.53
2023-05-14T16:50:13.316Z,46.89
2023-05-14T16:52:41.649Z,47.19
2023-05-14T16:55:10.148Z,47.29
2023-05-14T16:57:38.620Z,47.29
2023-05-14T17:00:09.709Z,47.05
2023-05-14T17:02:38.537Z,46.87
2023-05-14T17:05:08.001Z,46.61
2023-05-14T17:07:38.945Z,46.70
2023-05-14T17:10:07.808Z,46.75
2023-05-14T17:12:36.227Z,46.69
2023-05-14T17:15:07.258Z,46.63
2023-05-14T17:17:35.750Z,46.84
2023-05-14T17:20:06.082Z,46.61
2023-05-14T17:22:34.993Z,46.45
2023-05-14T17:25:03.772Z,46.28
2023-05-14T17:27:33.548Z,46.29
2023-05-14T17:30:03.675Z,46.42
2023-05-14T17:32:32.286Z,46.23
2023-05-14T17:35:00.836Z,45.90
2023-05-14T17:37:30.032Z,46.09
2023-05-14T17:39:58.437Z,46.21
2023-05-14T17:42:26.901Z,46.12
2023-05-14T17:44:56.038Z,45.80
2023-05-14T17:47:24.500Z,45.63
2023-05-14T17:49:53.255Z,45.45
2023-05-14T17:52:21.620Z,45.53
2023-05-14T17:54:50.091Z,45.52
2023-05-14T17:57:18.703Z,45.57
2023-05-14T17:59:47.091Z,45.53
2023-05-14T18:02:15.638Z,45.51
2023-05-14T18:04:44.085Z,45.47
2023-05-14T18:07:12.655Z,45.65
2023-05-14T18:09:41.694Z,45.75
2023-05-14T18:12:15.054Z,45.55
2023-05-14T18:14:45.436Z,45.26
2023-05-14T18:17:14.436Z,45.48
2023-05-14T18:19:43.031Z,45.18
2023-05-14T18:22:11.490Z,44.95
2023-05-14T18:24:39.976Z,44.83
2023-05-14T18:27:08.825Z,44.70
2023-05-14T18:29:37.249Z,44.78
2023-05-14T18:32:06.024Z,44.82
2023-05-14T18:34:34.384Z,44.82
2023-05-14T18:37:02.749Z,44.74
2023-05-14T18:39:31.286Z,44.87
2023-05-14T18:41:59.733Z,44.72
2023-05-14T18:44:28.190Z,44.91
2023-05-14T18:46:56.935Z,44.87
2023-05-14T18:49:25.684Z,44.97
2023-05-14T18:51:54.137Z,44.87
2023-05-14T18:54:22.550Z,44.79
2023-05-14T18:56:50.987Z,45.02
2023-05-14T18:59:19.379Z,44.83
2023-05-14T19:01:47.827Z,44.48
2023-05-14T19:04:16.305Z,44.79
2023-05-14T19:06:44.643Z,44.83
2023-05-14T19:09:15.028Z,44.60
2023-05-14T19:11:43.635Z,44.41
2023-05-14T19:14:12.062Z,44.31
2023-05-14T19:16:41.068Z,44.57
2023-05-14T19:19:09.553Z,44.49
2023-05-14T19:21:37.984Z,44.49
2023-05-14T19:24:06.571Z,44.50
2023-05-14T19:26:35.125Z,44.55
2023-05-14T19:29:03.529Z,44.68
2023-05-14T19:31:31.953Z,44.46
2023-05-14T19:34:00.522Z,44.47
2023-05-14T19:36:31.787Z,44.74
2023-05-14T19:39:00.169Z,44.67
2023-05-14T19:41:28.712Z,44.44
2023-05-14T19:43:57.069Z,44.65
2023-05-14T19:46:25.486Z,44.84
2023-05-14T19:48:53.901Z,44.91
2023-05-14T19:51:22.381Z,45.09
2023-05-14T19:53:50.717Z,45.15
2023-05-14T19:56:19.215Z,45.10
2023-05-14T19:58:47.631Z,45.31
2023-05-14T20:01:16.250Z,45.26
2023-05-14T20:03:44.748Z,45.32
2023-05-14T20:06:13.266Z,45.51
2023-05-14T20:16:33.195Z,46.10
2023-05-14T20:19:01.639Z,46.00
2023-05-14T20:21:30.212Z,46.35
2023-05-14T20:23:58.610Z,46.44
2023-05-14T20:26:27.153Z,46.22
2023-05-14T20:28:55.704Z,46.42
2023-05-14T20:31:24.102Z,46.63
2023-05-14T20:33:52.412Z,46.88
2023-05-14T20:36:20.806Z,47.05
2023-05-14T20:38:49.408Z,47.16
2023-05-14T20:41:17.744Z,47.49
2023-05-14T20:43:46.160Z,47.19
2023-05-14T20:46:14.652Z,47.21
2023-05-14T20:48:43.103Z,47.21
2023-05-14T20:51:11.390Z,47.33
2023-05-14T20:53:40.234Z,47.50
2023-05-14T20:56:08.634Z,47.90
2023-05-14T20:58:37.048Z,48.34
2023-05-14T21:01:08.206Z,48.32
2023-05-14T21:03:37.088Z,48.70
2023-05-14T21:06:05.739Z,49.24
2023-05-14T21:08:35.181Z,49.38
2023-05-14T21:11:03.549Z,49.60
2023-05-14T21:13:31.970Z,49.89
2023-05-14T21:16:00.715Z,50.15
2023-05-14T21:18:32.959Z,50.12
2023-05-14T21:21:01.546Z,50.09
2023-05-14T21:23:29.974Z,49.99
2023-05-14T21:25:58.394Z,50.36
2023-05-14T21:28:26.846Z,50.10
2023-05-14T21:30:55.268Z,50.19
2023-05-14T21:33:23.989Z,50.12
2023-05-14T21:35:52.558Z,50.05
2023-05-14T21:38:21.267Z,50.05
2023-05-14T21:40:49.594Z,50.04
2023-05-14T21:43:18.005Z,50.16
2023-05-14T21:45:49.487Z,50.35
2023-05-14T21:48:18.095Z,50.49
2023-05-14T21:50:46.785Z,50.55
2023-05-14T21:53:15.641Z,50.63
2023-05-14T21:55:44.134Z,50.70
2023-05-14T21:58:12.519Z,50.50
2023-05-14T22:00:41.365Z,50.47
2023-05-14T22:03:09.989Z,50.50
2023-05-14T22:05:38.604Z,50.77
2023-05-14T22:08:07.506Z,50.88
2023-05-14T22:10:36.003Z,50.88
2023-05-14T22:13:04.332Z,50.58
2023-05-14T22:15:32.688Z,50.75
2023-05-14T22:18:01.070Z,50.44
2023-05-14T22:20:29.357Z,50.51
2023-05-14T22:22:57.704Z,50.88
2023-05-14T22:25:26.383Z,51.07
2023-05-14T22:27:55.197Z,51.23
2023-05-14T22:30:23.668Z,51.03
2023-05-14T22:32:52.160Z,51.03
2023-05-14T22:35:21.709Z,51.35
2023-05-14T22:37:50.081Z,51.58
2023-05-14T22:40:18.398Z,51.23
2023-05-14T22:42:46.910Z,51.45
2023-05-14T22:45:15.402Z,51.39
2023-05-14T22:47:43.835Z,51.03
2023-05-14T22:50:12.177Z,51.06
2023-05-14T22:52:41.618Z,51.31
2023-05-14T22:55:10.148Z,51.18
2023-05-14T22:57:39.065Z,51.25
2023-05-14T23:00:09.063Z,51.19
2023-05-14T23:02:37.382Z,51.18
2023-05-14T23:05:08.186Z,51.02
2023-05-14T23:07:36.931Z,50.67
2023-05-14T23:10:06.060Z,50.80
2023-05-14T23:12:34.455Z,50.48
2023-05-14T23:15:03.633Z,50.26
2023-05-14T23:17:32.596Z,50.03
2023-05-14T23:20:01.006Z,49.95
2023-05-14T23:22:29.310Z,50.15
2023-05-14T23:24:57.650Z,50.30
2023-05-14T23:27:26.219Z,50.47
2023-05-14T23:29:54.521Z,51.15
2023-05-14T23:32:23.401Z,51.18
2023-05-14T23:34:52.017Z,51.14
2023-05-14T23:37:20.659Z,51.13
2023-05-14T23:39:49.015Z,51.55
2023-05-14T23:42:17.395Z,51.43
2023-05-14T23:44:45.751Z,51.52
2023-05-14T23:47:14.189Z,51.72
2023-05-14T23:49:42.571Z,51.52
2023-05-14T23:52:11.597Z,51.67
2023-05-14T23:54:39.997Z,51.60
2023-05-14T23:57:08.442Z,51.74
2023-05-14T23:59:36.810Z,52.04
